Terminal Aerodrome Forecast
Issued by NWS

Current Version | Previous Version | Text Only | Print | Product List | Glossary Off
Versions: 1 2 3 4 5 6 7 8 9 10 11 12 13 14 15 16 17 18 19 20 21 22 23 24 25

000
FTUS41 KRLX 161727
TAFCKB
TAF
KCKB 161727Z 1618/1718 24004KT 2SM -SN SCT006 BKN012
      TEMPO 1619/1621 1SM -SN OVC006
     FM162300 29005KT 4SM -SN OVC015
     FM170200 29004KT P6SM BKN025=

USA.gov is the U.S. government's official web portal to all federal, state and local government web resources and services.